Date,TemperatureHighF,TemperatureAvgF,TemperatureLowF,DewpointHighF,DewpointAvgF,DewpointLowF,HumidityHigh,HumidityAvg,HumidityLow,PressureMaxIn,PressureMinIn,WindSpeedMaxMPH,WindSpeedAvgMPH,GustSpeedMaxMPH,PrecipitationSumIn
2013-1-1,47.1,41.2,36.5,45.8,38.9,33.9,95,91,84,29.97,29.44,15,5,15,0.03
2013-1-2,50.9,43.9,34.3,48.9,41.8,32.3,93,92,90,30.25,29.97,14,4,14,0.00
2013-1-3,53.1,50.3,46.0,50.1,47.9,44.1,94,91,88,30.53,30.25,13,5,13,0.00
2013-1-4,50.5,48.7,46.4,47.1,45.4,43.5,92,88,85,30.57,30.51,13,5,13,0.00
2013-1-5,51.6,48.1,38.5,48.8,45.7,36.4,94,91,88,30.51,30.42,12,3,12,0.00
2013-1-6,47.7,44.5,37.8,45.5,42.5,35.9,94,93,91,30.43,30.30,9,2,9,0.00
2013-1-7,47.7,46.2,44.4,45.5,44.0,42.2,93,92,91,30.30,30.16,10,3,10,0.00
2013-1-8,82.2,49.5,47.5,68.8,46.6,45.0,93,90,64,30.18,29.85,15,5,15,0.08
2013-1-9,49.5,45.8,35.6,47.6,43.5,33.5,94,91,85,30.10,29.99,10,2,10,0.14
2013-1-10,75.7,40.7,35.1,41.3,38.3,33.0,93,91,88,30.03,29.84,9,2,9,0.00
2013-1-11,41.4,38.0,33.6,39.3,35.9,31.4,93,92,89,29.98,29.88,8,3,8,0.03
2013-1-12,71.8,38.3,36.5,57.4,36.1,34.3,94,92,59,29.97,29.72,12,6,12,0.22
2013-1-13,38.5,35.6,32.5,36.0,32.0,29.0,92,87,79,30.06,29.85,12,5,12,0.00
2013-1-14,37.6,34.5,31.8,35.7,32.1,29.1,93,91,87,30.01,29.58,6,1,6,0.25
2013-1-15,39.0,33.3,24.6,34.6,30.6,22.6,93,90,82,29.79,29.58,17,5,17,0.03
2013-1-16,55.6,28.3,22.3,52.4,26.2,20.3,93,92,89,29.93,29.74,6,1,6,0.00
2013-1-17,34.3,30.8,25.5,32.0,28.6,23.5,93,92,88,30.00,29.79,6,1,6,0.00
2013-1-18,34.0,31.8,30.4,30.9,29.0,27.8,92,89,86,29.79,29.33,14,6,14,0.00
2013-1-19,34.3,31.7,30.4,32.0,29.3,27.3,92,91,88,29.40,29.32,14,6,14,0.00
2013-1-20,37.2,31.8,29.7,33.2,28.9,26.7,91,89,84,29.39,29.22,19,5,19,0.00
2013-1-21,37.2,32.4,29.3,33.1,29.5,26.4,92,89,82,29.43,29.22,4,1,4,0.00
2013-1-22,36.5,34.1,33.1,33.8,32.0,31.2,93,92,90,29.58,29.45,10,2,10,0.00
2013-1-23,37.2,34.2,33.1,34.1,32.0,31.3,93,92,89,29.71,29.56,8,3,8,0.00
2013-1-24,37.0,33.9,31.8,34.2,31.2,29.5,93,90,87,30.05,29.71,7,2,7,0.03
2013-1-25,37.6,34.3,30.4,35.2,31.1,27.5,92,88,81,30.03,29.48,17,5,17,0.36
2013-1-26,46.2,41.2,35.2,43.7,39.1,33.5,95,92,90,29.78,29.47,24,7,24,0.19
2013-1-27,49.6,44.4,34.9,48.3,41.0,33.3,95,88,66,29.56,29.24,25,8,25,0.39
2013-1-28,72.5,44.7,34.0,49.3,42.8,32.1,95,93,44,30.19,29.48,21,8,21,0.11
2013-1-29,54.9,51.9,48.0,53.2,50.1,46.4,95,94,92,29.61,29.50,22,10,22,0.19
2013-1-30,53.6,48.4,42.1,51.2,44.0,37.9,95,85,64,29.99,29.47,25,10,25,0.22
2013-1-31,50.9,46.6,40.8,46.5,41.9,37.8,93,84,70,29.99,29.75,30,10,30,0.19
2013-2-1,45.9,42.0,37.6,43.0,39.7,35.7,94,92,87,29.80,29.41,11,4,11,0.22
2013-2-2,43.5,37.6,27.0,38.3,32.0,23.8,94,81,66,30.17,29.53,20,7,20,0.00
2013-2-3,48.7,40.1,26.2,45.9,37.1,23.4,91,89,85,30.18,29.86,15,5,15,0.00
2013-2-4,52.0,47.1,41.4,46.4,40.6,35.7,90,79,58,29.90,29.69,23,10,23,0.00
2013-2-5,44.6,39.7,34.0,38.1,33.7,29.4,89,79,59,29.69,29.31,26,10,26,0.06
2013-2-6,43.0,39.6,33.8,38.4,34.2,27.4,92,81,70,30.00,29.33,22,10,22,0.06
2013-2-7,42.8,36.9,31.6,35.2,31.6,26.9,89,81,69,30.05,29.91,13,6,13,0.00
2013-2-8,49.6,37.2,32.9,46.8,33.7,30.6,92,87,75,30.06,29.77,10,5,10,0.00
2013-2-9,62.1,38.3,36.9,43.7,35.6,34.5,92,90,51,30.12,29.78,7,2,7,0.11
2013-2-10,66.7,39.5,37.8,47.7,37.6,35.9,94,93,72,30.07,29.16,20,5,20,0.67
2013-2-11,37.9,35.3,33.8,36.1,33.7,32.3,94,94,93,29.69,29.20,13,5,13,0.14
2013-2-12,37.2,35.1,33.8,34.9,32.7,30.6,94,91,87,30.05,29.69,10,4,10,0.00
2013-2-13,40.5,35.3,32.2,38.4,31.7,29.3,93,87,76,30.11,29.90,17,5,17,0.03
2013-2-14,52.7,45.7,37.9,48.7,42.6,35.1,95,89,75,29.92,29.38,17,7,17,0.19
2013-2-15,52.2,39.4,30.0,43.2,34.9,28.1,94,85,64,30.13,29.92,11,2,11,0.00
2013-2-16,50.9,40.1,30.9,45.3,35.9,28.3,92,85,66,30.16,30.11,7,1,7,0.00
2013-2-17,50.0,39.6,31.5,42.8,35.1,29.0,93,85,61,30.12,30.00,15,4,15,0.00
2013-2-18,49.8,37.1,28.9,41.4,32.4,25.9,93,84,62,30.06,30.00,12,3,12,0.00
2013-2-19,53.1,34.8,24.3,41.9,30.2,21.8,92,84,64,30.04,29.96,5,1,5,0.00
2013-2-20,45.5,36.0,26.8,38.8,31.6,24.2,93,84,67,30.16,30.00,15,4,15,0.00
2013-2-21,40.8,33.9,28.2,28.1,25.1,22.8,82,70,57,30.16,30.06,15,7,15,0.00
2013-2-22,37.6,33.7,32.0,27.4,24.8,23.1,76,70,65,30.06,30.00,16,7,16,0.00
2013-2-23,38.7,33.8,30.4,30.2,26.6,23.3,84,75,65,30.12,30.00,14,7,14,0.00
2013-2-24,36.5,34.1,31.3,29.8,28.2,26.6,86,79,73,30.19,30.10,16,8,16,0.00
2013-2-25,40.1,37.5,33.4,35.5,33.1,27.0,88,84,77,30.28,30.16,20,8,20,0.00
2013-2-26,41.4,39.0,36.7,38.9,36.5,33.7,92,91,87,30.46,30.27,16,7,16,0.00
2013-2-27,43.5,38.2,34.9,37.0,34.4,31.4,91,86,74,30.46,30.37,15,7,15,0.00
2013-2-28,46.8,39.6,33.1,38.6,34.9,30.2,90,83,72,30.38,30.24,15,6,15,0.00
2013-3-1,44.8,40.0,36.5,41.0,35.0,31.2,91,82,72,30.31,30.26,13,5,13,0.03
2013-3-2,43.5,36.6,26.1,34.6,30.3,22.8,88,78,69,30.31,30.19,12,3,12,0.00
2013-3-3,44.8,35.4,23.4,37.7,31.1,20.6,90,84,75,30.19,30.01,11,3,11,0.00
2013-3-4,53.8,39.3,28.9,40.5,33.2,26.4,93,80,57,30.01,29.66,12,3,12,0.00
2013-3-5,59.9,41.8,26.8,47.1,35.6,24.2,91,80,59,29.66,29.50,12,2,12,0.00
2013-3-6,57.9,47.3,36.3,48.8,41.7,33.0,88,81,70,29.50,29.42,8,2,8,0.00
2013-3-7,53.2,48.3,44.8,50.7,46.0,42.6,93,92,88,29.44,29.30,8,3,8,0.19
2013-3-8,52.0,49.2,47.8,50.0,47.5,46.1,94,94,93,29.47,29.31,5,1,5,0.50
2013-3-9,50.5,46.1,39.9,47.6,43.8,36.2,94,92,87,29.59,29.47,9,2,9,0.03
2013-3-10,40.6,37.5,34.0,36.2,33.0,28.6,87,84,80,29.65,29.57,20,8,20,0.00
2013-3-11,34.7,32.2,29.1,29.4,25.3,21.1,84,76,65,29.66,29.61,28,13,28,0.00
2013-3-12,42.1,34.4,28.2,30.9,23.9,19.6,83,67,45,29.76,29.64,28,13,28,0.00
2013-3-13,46.6,37.2,29.3,32.8,28.4,23.9,85,71,50,29.88,29.72,14,5,14,0.00
2013-3-14,48.4,35.1,25.0,33.5,26.8,22.5,91,74,46,29.95,29.85,13,3,13,0.00
2013-3-15,50.2,42.6,30.9,43.9,38.3,26.0,92,85,76,29.85,29.49,22,9,22,0.28
2013-3-16,47.7,43.2,39.9,44.9,41.0,37.6,93,92,89,29.49,29.22,34,12,34,0.61
2013-3-17,47.8,38.6,30.0,45.3,36.7,28.3,94,93,89,29.26,29.09,14,3,14,0.17
2013-3-18,47.8,37.4,27.5,45.9,35.8,26.0,95,94,92,29.29,29.14,7,1,7,0.44
2013-3-19,51.3,40.9,31.8,47.7,38.7,30.0,95,92,84,29.43,29.29,7,2,7,0.28
2013-3-20,47.1,39.5,31.5,42.0,36.6,29.7,94,89,80,29.91,29.43,12,4,12,0.00
2013-3-21,46.6,40.4,35.8,38.4,35.8,32.3,91,84,71,29.93,29.80,16,6,16,0.11
2013-3-22,48.0,40.2,36.9,44.0,37.8,35.0,94,91,80,29.80,29.62,15,7,15,0.44
2013-3-23,38.3,35.8,33.8,36.7,34.2,32.3,94,94,92,29.77,29.64,13,5,13,0.55
2013-3-24,34.7,33.4,32.5,33.2,30.0,26.6,94,88,77,29.86,29.75,15,7,15,0.00
2013-3-25,38.3,34.3,32.7,29.7,27.0,26.0,79,75,69,29.88,29.83,16,8,16,0.00
2013-3-26,45.0,34.5,32.4,28.9,26.6,25.4,79,73,66,29.85,29.27,16,7,16,0.00
2013-3-27,44.8,36.7,31.1,31.7,27.2,23.8,82,69,55,29.81,29.76,14,7,14,0.00
2013-3-28,46.2,36.7,30.2,33.9,27.5,23.7,86,69,57,29.86,29.77,14,6,14,0.00
2013-3-29,46.8,36.3,26.6,31.8,26.0,21.0,82,67,49,29.84,29.70,12,5,12,0.00
2013-3-30,47.3,37.2,29.3,32.7,28.8,24.8,85,72,53,29.89,29.69,14,5,14,0.00
2013-3-31,45.9,34.7,22.1,34.2,26.2,19.1,90,72,53,29.91,29.81,12,4,12,0.00
2013-4-1,45.0,37.1,31.8,30.5,27.5,23.6,83,69,51,29.81,29.74,22,7,22,0.00
2013-4-2,49.5,38.2,28.6,34.0,25.3,19.7,86,62,35,29.97,29.79,17,7,17,0.00
2013-4-3,43.7,36.6,29.7,31.3,26.1,22.4,86,67,52,29.97,29.88,21,9,21,0.00
2013-4-4,39.9,36.0,33.1,33.1,28.8,24.2,83,75,62,29.90,29.81,22,9,22,0.00
2013-4-5,48.4,39.3,33.3,32.1,28.2,23.4,79,66,42,30.03,29.81,21,10,21,0.00
2013-4-6,53.1,40.1,30.2,34.8,29.0,23.9,88,67,42,30.18,30.03,14,5,14,0.00
2013-4-7,53.6,38.6,23.7,35.6,26.7,20.1,88,65,37,30.19,29.78,12,3,12,0.00
2013-4-8,56.3,44.6,37.8,37.5,32.6,27.5,79,64,43,29.78,29.46,12,5,12,0.00
2013-4-9,47.3,42.3,38.3,44.6,39.4,32.8,93,89,74,29.47,29.29,12,4,12,0.22
2013-4-10,52.2,44.7,38.8,46.0,40.8,36.7,93,86,70,29.65,29.32,12,4,12,0.39
2013-4-11,57.9,48.2,43.3,52.3,44.8,41.2,94,88,71,29.42,29.27,14,5,14,0.11
2013-4-12,55.0,47.7,42.8,49.3,44.8,40.6,93,90,80,29.69,29.22,15,6,15,0.44
2013-4-13,52.7,45.6,34.3,50.5,43.4,32.8,95,92,83,29.82,29.65,21,7,21,0.30
2013-4-14,66.7,56.6,50.7,53.3,50.4,46.5,94,80,60,29.88,29.68,24,11,24,0.00
2013-4-15,62.8,54.4,47.1,52.7,48.0,42.5,88,80,66,30.00,29.87,20,9,20,0.00
2013-4-16,62.4,53.5,46.8,52.5,46.9,42.8,92,79,56,30.01,29.84,20,9,20,0.00
2013-4-17,63.9,55.4,48.4,54.1,49.6,44.6,92,82,65,30.01,29.73,22,9,22,0.00
2013-4-18,60.3,51.0,44.2,46.6,41.8,37.0,81,71,57,30.02,29.75,25,11,25,0.00
2013-4-19,60.3,50.0,41.0,48.1,39.4,33.6,87,69,43,30.41,30.02,18,6,18,0.03
2013-4-20,60.6,46.6,31.3,41.8,32.7,27.2,90,62,29,30.46,30.28,10,3,10,0.00
2013-4-21,61.3,45.7,28.6,42.4,35.2,24.9,89,69,41,30.28,29.95,14,4,14,0.00
2013-4-22,62.1,51.5,41.4,48.8,43.9,37.8,88,76,51,29.95,29.89,15,5,15,0.00
2013-4-23,69.6,58.0,46.9,52.2,48.0,43.0,90,71,51,30.14,29.92,12,5,12,0.00
2013-4-24,68.5,54.9,41.4,56.3,48.4,38.1,91,79,64,30.19,30.12,12,3,12,0.00
2013-4-25,73.9,59.0,47.7,58.0,50.4,44.4,91,75,50,30.18,29.95,18,5,18,0.00
2013-4-26,58.3,49.3,39.7,50.1,39.8,29.9,92,72,46,29.97,29.83,19,7,19,0.11
2013-4-27,51.4,42.4,32.5,46.3,37.2,28.7,92,82,60,30.03,29.83,15,5,15,0.08
2013-4-28,55.8,43.9,28.9,50.8,36.0,27.0,94,76,49,30.03,29.84,15,5,15,0.00
2013-4-29,60.6,51.0,41.5,42.6,39.1,34.9,87,66,43,30.10,29.83,15,6,15,0.00
2013-4-30,62.1,49.4,33.1,41.2,35.7,29.3,89,62,37,30.22,30.10,18,5,18,0.00
2013-5-1,63.7,50.7,31.6,44.8,35.3,27.5,88,60,32,30.22,30.07,13,4,13,0.00
2013-5-2,66.4,52.5,33.3,36.1,29.5,22.4,85,48,20,30.14,30.06,13,4,13,0.00
2013-5-3,68.2,52.5,33.4,46.4,39.2,28.9,86,63,35,30.10,29.98,14,4,14,0.00
2013-5-4,64.2,52.7,41.9,53.0,42.2,33.8,88,69,40,30.06,29.91,21,7,21,0.00
2013-5-5,69.1,55.9,41.7,54.4,46.5,36.3,85,71,55,30.12,30.06,10,3,10,0.00
2013-5-6,75.0,58.1,41.7,54.4,46.4,38.3,89,68,43,30.10,29.97,11,2,11,0.00
2013-5-7,74.3,57.6,38.5,52.2,42.9,34.9,89,62,34,30.00,29.78,10,3,10,0.00
2013-5-8,63.9,55.5,46.9,54.5,49.3,41.0,90,80,65,29.78,29.63,14,6,14,0.08
2013-5-9,59.2,49.6,39.7,48.7,43.2,37.0,91,79,58,29.77,29.62,28,11,28,0.06
2013-5-10,66.7,54.7,47.5,50.6,47.3,43.2,90,77,51,29.87,29.64,19,9,19,0.06
2013-5-11,61.3,50.7,42.1,51.4,43.7,39.1,90,78,61,29.86,29.75,24,7,24,0.11
2013-5-12,62.6,50.6,41.2,50.1,44.4,38.3,92,81,52,29.95,29.85,15,7,15,0.03
2013-5-13,61.5,53.4,45.1,49.7,44.7,38.5,92,74,49,29.87,29.75,19,8,19,0.03
2013-5-14,54.1,48.2,43.3,46.7,43.1,38.8,91,83,67,29.76,29.12,28,6,28,0.41
2013-5-15,59.9,47.9,40.8,47.0,41.5,37.5,91,79,57,29.49,29.08,23,8,23,0.17
2013-5-16,62.4,48.6,33.1,50.9,40.2,30.5,92,74,53,29.50,29.41,10,2,10,0.03
2013-5-17,59.0,48.5,33.8,48.8,40.9,30.9,91,76,60,29.75,29.49,15,4,15,0.00
2013-5-18,64.6,54.5,43.5,49.9,44.8,39.9,89,71,52,29.74,29.65,10,2,10,0.22
2013-5-19,68.9,57.5,46.4,50.9,47.2,42.7,88,70,51,29.83,29.70,14,4,14,0.00
2013-5-20,66.9,58.0,50.0,57.6,52.0,46.0,87,81,71,29.84,29.77,16,6,16,0.00
2013-5-21,61.3,58.0,52.9,55.1,51.8,47.9,88,80,68,30.00,29.84,13,6,13,0.00
2013-5-22,64.2,55.1,44.4,50.1,45.5,35.6,87,71,52,30.03,29.95,14,6,14,0.00
2013-5-23,56.8,46.0,40.3,47.0,39.2,34.3,91,78,45,29.95,29.82,25,7,25,0.14
2013-5-24,48.7,44.1,39.6,45.6,40.5,36.9,93,87,76,29.93,29.59,26,8,26,0.28
2013-5-25,62.1,50.6,40.3,51.9,41.6,35.8,94,74,45,30.09,29.93,12,5,12,0.00
2013-5-26,68.9,55.3,39.0,46.9,41.4,34.7,88,62,40,30.53,29.91,12,5,12,0.00
2013-5-27,56.3,56.3,56.3,41.3,41.3,41.3,57,57,57,29.91,29.91,5,5,5,0.00
2013-5-28,56.3,51.1,46.2,52.6,48.1,41.3,93,90,57,30.51,29.42,18,2,18,0.64
2013-5-29,62.8,52.0,40.5,55.4,47.6,38.6,94,86,64,29.70,29.50,10,3,10,0.00
2013-5-30,62.8,56.0,52.0,56.9,51.6,49.2,93,86,69,29.92,29.68,15,6,15,0.22
2013-5-31,74.1,61.5,51.1,57.1,52.0,47.3,88,72,52,30.04,29.92,15,5,15,0.00
2013-6-1,68.2,58.9,48.9,49.9,45.3,42.0,84,62,43,30.22,30.04,16,7,16,0.03
2013-6-2,68.0,57.1,42.4,48.2,43.2,38.2,87,62,42,30.34,30.21,13,4,13,0.00
2013-6-3,71.4,57.4,39.6,51.8,43.7,36.0,88,63,40,30.39,30.29,13,4,13,0.00
2013-6-4,71.6,57.9,38.3,47.1,42.9,34.4,88,61,38,30.34,30.11,20,6,20,0.00
2013-6-5,73.6,60.3,47.8,52.2,47.1,42.9,84,64,44,30.13,29.98,13,5,13,0.00
2013-6-6,74.7,61.8,48.7,54.3,48.9,43.8,85,64,47,30.09,30.03,14,6,14,0.00
2013-6-7,70.9,59.4,50.7,61.8,50.4,43.2,89,73,53,30.15,30.07,17,6,17,0.06
2013-6-8,68.7,59.2,47.8,50.6,46.5,42.8,83,64,48,30.12,29.97,18,8,18,0.00
2013-6-9,65.5,57.0,50.4,49.4,46.2,43.4,81,68,55,29.98,29.88,16,6,16,0.00
2013-6-10,65.7,54.4,43.3,49.5,45.3,38.7,87,72,54,29.93,29.88,9,1,9,0.00
2013-6-11,64.6,56.0,42.3,59.3,51.4,37.8,87,85,80,29.90,29.82,13,5,13,0.00
2013-6-12,62.1,57.6,30.4,57.2,54.4,27.3,92,89,83,29.83,29.34,16,8,16,0.00
2013-6-13,62.4,56.1,30.4,49.1,46.4,27.8,90,70,57,29.96,29.39,16,6,16,0.00
2013-6-14,66.6,55.9,42.4,53.7,47.8,39.0,90,75,47,29.98,29.72,17,6,17,0.00
2013-6-15,65.1,56.5,48.6,54.4,50.2,45.7,92,80,55,29.81,29.63,24,9,24,0.14
2013-6-16,67.1,57.7,51.1,55.0,50.1,47.3,88,76,61,29.88,29.81,9,4,9,0.03
2013-6-17,71.8,61.8,51.8,57.3,51.5,46.6,87,70,52,29.88,29.80,13,5,13,0.00
2013-6-18,72.9,64.3,55.4,63.4,56.7,50.3,87,77,65,29.89,29.81,11,3,11,0.00
2013-6-19,82.4,69.1,57.6,65.7,59.0,54.0,90,72,45,29.90,29.83,10,3,10,0.00
2013-6-20,69.3,65.0,55.6,61.9,58.8,51.1,86,81,73,29.86,29.73,9,3,9,0.00
2013-6-21,72.5,62.1,53.4,61.3,56.2,49.6,89,82,66,29.81,29.70,12,5,12,0.00
2013-6-22,67.8,58.3,52.5,60.9,52.9,49.2,93,83,65,29.81,29.61,21,10,21,0.08
2013-6-23,66.2,59.3,54.5,56.2,51.9,48.5,89,77,64,29.97,29.61,20,8,20,0.00
2013-6-24,65.3,57.0,47.1,48.8,46.5,42.7,87,69,51,30.22,29.97,16,5,16,0.00
2013-6-25,72.1,60.0,46.0,53.7,47.6,42.1,89,66,43,30.34,30.22,9,2,9,0.00
2013-6-26,74.7,60.3,43.0,56.0,48.7,39.4,89,68,45,30.37,30.28,12,3,12,0.00
2013-6-27,72.9,60.9,52.3,53.5,49.6,45.9,89,68,42,30.30,30.11,13,4,13,0.06
2013-6-28,75.2,63.1,55.0,64.9,57.9,51.9,91,84,67,30.11,29.99,14,5,14,0.06
2013-6-29,73.6,64.9,55.8,56.2,52.2,49.1,89,66,44,30.18,30.00,16,5,16,0.00
2013-6-30,80.1,67.9,53.4,63.1,57.3,49.5,89,70,54,30.18,30.00,15,5,15,0.00
2013-7-1,72.5,61.9,52.3,54.5,50.9,46.7,87,69,50,30.01,29.91,14,4,14,0.00
2013-7-2,64.2,57.1,47.8,54.2,50.5,43.9,89,79,65,29.94,29.61,16,4,16,0.00
2013-7-3,73.2,62.4,53.6,60.9,55.4,48.9,91,79,60,29.95,29.55,13,6,13,0.03
2013-7-4,74.3,63.7,50.4,63.5,56.7,46.6,89,79,62,30.18,29.95,12,4,12,0.00
2013-7-5,80.2,64.9,48.4,61.3,53.8,45.0,90,70,45,30.33,30.18,12,3,12,0.00
2013-7-6,81.0,65.8,46.9,62.9,54.9,43.3,91,70,47,30.33,30.26,7,2,7,0.00
2013-7-7,85.3,71.1,51.6,70.7,57.0,49.4,94,66,36,30.41,30.32,10,3,10,0.00
2013-7-8,83.7,70.3,51.8,60.9,54.9,47.3,88,61,38,30.43,30.32,16,5,16,0.00
2013-7-9,64.2,60.5,60.1,56.9,53.6,52.8,78,78,76,30.34,30.32,8,0,8,0.00
2013-7-10,60.3,60.3,60.3,53.4,53.4,53.4,78,78,78,30.32,30.32,0,0,0,0.00
2013-7-11,60.3,60.3,60.3,53.4,53.4,53.4,78,78,78,30.32,30.32,0,0,0,0.00
2013-7-12,60.3,60.3,60.3,53.4,53.4,53.4,78,78,78,30.32,30.32,0,0,0,0.00
2013-7-13,60.3,60.3,60.3,53.4,53.4,53.4,78,78,78,30.32,30.32,0,0,0,0.00
2013-7-14,60.3,60.3,60.3,53.4,53.4,53.4,78,78,78,30.32,30.32,0,0,0,0.00
2013-7-15,60.3,60.3,60.3,53.4,53.4,53.4,78,78,78,30.32,30.32,0,0,0,0.00
2013-7-16,60.3,60.3,60.3,53.4,53.4,53.4,78,78,78,30.32,30.32,0,0,0,0.00
2013-7-17,60.3,60.3,60.3,53.4,53.4,53.4,78,78,78,30.32,30.32,0,0,0,0.00
2013-7-18,60.3,60.3,60.3,53.4,53.4,53.4,78,78,78,30.32,30.32,0,0,0,0.00
2013-7-19,60.3,60.3,60.3,53.4,53.4,53.4,78,78,78,30.32,30.32,0,0,0,0.00
2013-7-20,60.3,60.3,60.3,53.4,53.4,53.4,78,78,78,30.32,30.32,0,0,0,0.00
2013-7-21,60.3,60.3,60.3,53.4,53.4,53.4,78,78,78,30.32,30.32,0,0,0,0.00
2013-7-22,60.3,60.3,60.3,53.4,53.4,53.4,78,78,78,30.32,30.32,0,0,0,0.00
2013-7-23,70.2,60.2,25.7,57.6,53.2,22.6,89,78,66,30.32,29.43,5,0,5,0.00
2013-7-24,84.0,69.0,31.1,62.6,57.6,28.5,90,69,44,30.17,29.85,13,4,13,0.00
2013-7-25,78.3,68.3,56.7,66.6,59.6,51.1,88,75,51,29.86,29.79,15,4,15,0.09
2013-7-26,81.3,66.1,49.8,61.7,53.1,46.4,89,66,42,29.84,29.76,10,2,10,0.00
2013-7-27,86.9,66.1,50.2,61.9,54.4,45.5,92,70,32,29.78,29.52,13,3,13,0.11
2013-7-28,77.7,66.3,57.4,65.3,58.1,55.1,93,77,49,29.70,29.54,20,8,20,0.14
2013-7-29,75.9,67.1,58.8,62.1,59.4,56.5,92,78,60,29.89,29.70,22,8,22,0.11
2013-7-30,66.9,62.8,57.9,63.9,60.0,55.6,93,91,86,29.90,29.77,14,5,14,0.11
2013-7-31,75.6,64.4,57.9,65.8,58.9,54.7,89,83,69,29.92,29.86,15,6,15,0.00
2013-8-1,90.1,75.4,60.8,70.6,63.2,57.4,91,69,42,29.86,29.60,17,6,17,0.00
2013-8-2,78.3,68.4,61.3,64.9,59.2,55.5,87,74,50,29.77,29.68,16,6,16,0.06
2013-8-3,75.4,65.7,57.7,60.2,56.3,53.8,90,73,51,30.02,29.75,20,7,20,0.09
2013-8-4,76.8,65.7,56.1,59.5,56.2,52.9,91,73,51,30.06,29.95,17,6,17,0.00
2013-8-5,74.8,64.9,58.6,62.4,58.8,55.5,93,81,61,29.95,29.70,17,4,17,0.64
2013-8-6,77.2,63.2,49.1,64.2,53.5,47.2,94,74,43,30.05,29.85,10,2,10,0.00
2013-8-7,77.4,63.1,50.5,58.3,51.8,46.9,91,69,42,29.97,29.83,13,3,13,0.00
2013-8-8,77.4,62.9,46.4,57.7,51.4,43.0,89,69,43,30.11,29.97,13,3,13,0.00
2013-8-9,77.2,67.1,60.1,62.9,54.8,47.4,89,67,42,30.12,29.96,14,6,14,0.03
2013-8-10,75.9,63.3,52.9,54.5,49.8,45.7,81,63,40,30.14,30.07,12,4,12,0.00
2013-8-11,74.1,64.7,56.5,59.5,52.8,47.2,85,67,43,30.07,29.95,18,5,18,0.00
2013-8-12,73.2,61.1,51.1,54.9,48.1,44.1,87,65,38,30.03,29.94,15,4,15,0.00
2013-8-13,72.3,59.9,48.6,53.7,48.9,44.2,86,69,42,30.14,30.03,15,4,15,0.00
2013-8-14,75.2,60.8,47.1,59.1,52.9,43.7,90,77,49,30.15,30.10,12,4,12,0.03
2013-8-15,76.6,67.2,60.6,64.0,60.5,56.9,91,80,61,30.10,29.94,18,6,18,0.00
2013-8-16,74.5,65.3,57.7,64.9,60.3,27.6,90,84,70,29.95,29.84,12,4,12,0.03
2013-8-17,69.4,60.3,52.9,59.3,55.5,50.0,91,85,66,29.93,29.68,17,6,17,0.06
2013-8-18,62.4,60.3,55.8,58.0,57.0,51.1,90,89,83,29.85,29.68,13,5,13,0.03
2013-8-19,73.8,62.0,49.5,55.8,50.5,45.5,90,68,46,30.24,29.84,13,3,13,0.00
2013-8-20,78.6,62.5,47.8,57.2,50.6,44.3,89,68,41,30.30,30.22,9,2,9,0.00
2013-8-21,79.7,64.0,47.3,58.5,51.8,43.6,89,67,42,30.24,30.08,9,3,9,0.00
2013-8-22,77.5,66.9,60.8,66.5,60.2,55.5,90,80,63,30.08,29.97,12,2,12,0.31
2013-8-23,82.6,68.0,55.8,66.5,58.3,52.9,92,73,43,30.00,29.78,14,3,14,0.00
2013-8-24,67.1,62.6,58.8,61.4,58.3,53.3,91,86,81,29.82,29.74,14,5,14,0.08
2013-8-25,75.6,63.2,54.5,64.3,55.8,48.6,88,78,59,29.97,29.77,12,5,12,0.03
2013-8-26,80.8,66.6,55.8,62.8,56.7,50.3,91,73,45,30.03,29.94,12,3,12,0.00
2013-8-27,75.6,60.5,47.1,57.9,49.8,43.7,91,71,43,30.05,29.98,12,2,12,0.00
2013-8-28,77.2,61.5,48.0,57.4,50.6,44.5,90,70,43,30.17,30.05,7,2,7,0.00
2013-8-29,77.5,63.6,51.4,58.3,53.6,47.4,90,72,45,30.14,30.06,15,3,15,0.00
2013-8-30,77.2,66.3,56.3,61.0,57.3,52.3,89,74,52,30.09,29.99,15,4,15,0.00
2013-8-31,70.7,62.1,48.0,58.2,48.1,39.9,90,63,37,30.34,30.06,14,5,14,0.00
2013-9-1,71.8,57.9,43.9,50.6,45.9,39.0,86,66,44,30.39,30.26,14,4,14,0.00
2013-9-2,78.6,62.9,45.5,58.6,52.8,41.7,90,71,50,30.30,30.21,12,3,12,0.00
2013-9-3,78.3,63.6,51.1,63.3,56.0,47.6,90,77,57,30.28,30.18,8,1,8,0.00
2013-9-4,81.9,63.2,46.9,64.6,51.1,43.7,91,69,32,30.19,29.93,10,2,10,0.00
2013-9-5,84.4,65.0,48.2,62.3,51.7,44.5,89,66,37,29.93,29.70,10,2,10,0.00
2013-9-6,65.7,58.9,51.4,56.2,51.5,45.7,86,77,58,29.77,29.66,13,3,13,0.03
2013-9-7,66.0,54.6,46.6,55.5,48.6,43.2,90,81,58,29.97,29.76,17,3,17,0.28
2013-9-8,62.6,52.4,43.7,53.5,46.9,40.8,92,82,58,30.01,29.96,14,3,14,0.11
2013-9-9,64.9,53.8,43.3,57.7,49.9,40.3,91,87,76,30.00,29.88,9,2,9,0.06
2013-9-10,64.9,55.6,46.2,52.7,48.1,43.7,92,77,58,30.09,29.99,16,7,16,0.00
2013-9-11,66.7,57.9,51.6,53.1,50.5,47.3,89,77,57,30.11,30.03,16,6,16,0.14
2013-9-12,69.3,60.4,54.5,60.0,55.7,51.5,91,85,70,30.04,29.99,6,1,6,0.14
2013-9-13,71.8,63.7,60.3,64.9,60.1,57.7,92,88,76,30.00,29.80,13,3,13,0.55
2013-9-14,60.1,53.5,46.2,56.7,50.2,43.2,93,89,77,30.00,29.80,16,5,16,0.03
2013-9-15,59.5,51.0,38.3,57.5,47.5,36.2,93,88,69,29.99,29.51,21,6,21,0.06
2013-9-16,62.6,51.0,43.9,48.9,43.9,40.6,93,78,45,29.60,29.53,20,6,20,0.03
2013-9-17,60.1,52.3,43.3,58.0,49.2,40.6,94,89,77,29.60,29.30,14,4,14,1.00
2013-9-18,61.3,54.2,42.6,56.4,49.6,39.3,94,85,62,29.81,29.36,17,5,17,0.06
2013-9-19,62.1,52.5,41.0,59.7,49.3,38.0,93,89,71,29.84,29.67,21,4,21,0.00
2013-9-20,66.0,53.9,42.3,57.5,48.7,40.7,95,84,61,30.11,29.82,10,2,10,0.00
2013-9-21,66.6,57.2,45.7,60.7,53.3,42.6,91,87,80,30.24,30.10,13,3,13,0.00
2013-9-22,69.3,63.0,52.9,62.5,58.9,50.0,91,87,77,30.30,30.22,10,2,10,0.00
2013-9-23,71.4,59.8,50.2,63.1,55.9,47.4,92,87,74,30.25,30.03,7,1,7,0.00
2013-9-24,71.8,58.0,48.0,63.3,53.7,45.5,92,86,68,30.04,29.85,7,1,7,0.00
2013-9-25,73.0,61.4,53.4,62.4,56.9,50.4,92,86,66,29.86,29.75,5,1,5,0.11
2013-9-26,67.8,60.1,52.0,59.5,55.4,48.8,91,85,69,29.98,29.84,9,3,9,0.06
2013-9-27,67.1,56.1,49.1,57.4,50.8,46.5,93,83,67,29.98,29.85,11,3,11,0.00
2013-9-28,66.0,58.0,51.6,60.2,53.3,48.8,91,85,73,29.85,29.66,13,4,13,0.03
2013-9-29,66.4,58.5,52.2,57.2,53.2,49.3,92,83,70,29.69,29.64,13,5,13,0.00
2013-9-30,65.3,58.5,53.2,58.6,53.9,50.4,91,85,77,29.71,29.61,8,3,8,0.00
2013-10-1,62.8,56.7,49.1,57.6,52.7,46.4,92,87,82,29.74,29.68,10,3,10,0.00
2013-10-2,69.8,61.3,56.5,63.5,57.4,53.6,92,87,75,29.82,29.70,13,4,13,0.03
2013-10-3,66.0,61.7,56.1,62.2,58.9,53.8,93,91,86,29.81,29.63,15,4,15,0.03
2013-10-4,68.4,62.7,56.5,62.8,58.8,53.3,93,87,73,29.89,29.62,16,6,16,0.06
2013-10-5,67.3,59.6,50.0,59.3,55.1,47.0,92,86,73,30.20,29.89,7,1,7,0.00
2013-10-6,66.0,52.6,41.5,56.2,47.7,39.4,93,84,66,30.34,30.19,9,2,9,0.03
2013-10-7,66.7,58.0,46.4,58.3,53.6,43.5,93,86,72,30.26,30.19,8,2,8,0.00
2013-10-8,68.5,60.7,51.3,59.2,56.1,48.5,93,85,72,30.33,30.17,11,3,11,0.00
2013-10-9,63.7,55.6,45.0,56.7,49.4,38.4,92,80,65,30.19,29.95,17,5,17,0.00
2013-10-10,55.2,47.8,43.0,41.1,38.9,-2.5,83,72,10,30.60,29.95,23,10,23,0.00
2013-10-11,57.9,51.3,45.7,52.2,47.0,38.5,93,85,66,30.04,29.84,21,10,21,0.19
2013-10-12,59.9,51.6,43.5,54.6,48.5,40.8,94,89,72,30.05,29.89,23,4,23,0.19
2013-10-13,52.2,49.5,46.2,50.2,47.4,43.7,94,92,88,29.96,29.74,14,5,14,0.50
2013-10-14,54.3,48.4,44.1,51.4,46.2,38.6,95,92,85,29.75,29.65,10,4,10,0.08
2013-10-15,58.8,49.0,39.4,51.4,45.3,36.8,92,87,75,29.90,29.71,9,3,9,0.00
2013-10-16,62.2,48.6,37.6,59.1,45.8,35.0,93,90,74,29.91,29.64,16,3,16,0.14
2013-10-17,64.9,55.4,48.4,58.3,51.8,45.6,94,88,73,29.95,29.78,18,4,18,0.03
2013-10-18,64.4,56.8,52.5,59.5,53.7,50.6,93,89,80,29.95,29.69,15,4,15,0.00
2013-10-19,63.9,58.4,50.5,60.2,55.4,48.3,92,90,85,29.69,29.59,14,5,14,0.06
2013-10-20,62.2,56.3,50.5,59.6,54.1,48.3,94,92,89,29.69,29.56,16,7,16,0.80
2013-10-21,62.4,59.1,55.0,59.0,56.7,53.1,94,92,85,29.69,29.54,20,8,20,0.08
2013-10-22,63.9,60.0,54.0,59.9,57.0,51.7,93,90,86,29.54,29.28,16,8,16,0.39
2013-10-23,62.2,55.1,41.4,57.6,51.6,38.9,94,88,73,29.82,29.22,18,7,18,0.11
2013-10-24,61.0,49.1,37.0,56.4,46.2,34.9,94,90,58,30.30,29.76,12,3,12,0.00
2013-10-25,64.6,59.3,55.8,59.5,56.0,53.2,94,89,80,29.76,29.55,18,8,18,0.14
2013-10-26,60.6,58.3,56.5,56.8,54.8,52.5,92,88,84,29.67,29.45,22,10,22,0.17
2013-10-27,60.6,55.3,50.7,54.1,51.2,47.6,93,86,70,29.46,29.17,21,9,21,0.75
2013-10-28,59.5,52.9,45.3,57.8,49.7,43.4,94,89,70,29.56,28.90,36,11,36,0.78
2013-10-29,55.0,46.1,39.0,48.4,42.0,36.6,94,86,66,30.02,29.56,14,4,14,0.00
2013-10-30,56.7,46.6,32.7,51.3,43.0,30.7,94,88,78,30.12,30.01,14,4,14,0.00
2013-10-31,55.0,53.6,52.2,53.2,51.7,50.5,94,93,90,30.03,29.89,16,5,16,0.28
2013-11-1,58.8,53.8,50.9,54.8,51.0,48.4,92,90,86,29.89,29.48,14,5,14,0.03
2013-11-2,57.4,51.2,44.1,53.7,46.9,41.9,94,86,75,29.54,29.36,22,8,22,0.03
2013-11-3,53.8,47.7,43.0,47.5,42.3,38.5,93,82,69,29.56,28.99,20,7,20,0.50
2013-11-4,50.9,43.7,34.7,48.0,40.9,32.3,94,90,78,29.45,28.95,21,6,21,0.33
2013-11-5,55.2,46.8,34.2,50.5,42.9,32.1,94,87,73,29.49,29.22,21,5,21,0.14
2013-11-6,61.0,54.3,47.8,57.0,51.2,43.9,93,89,85,29.50,29.44,21,7,21,0.03
2013-11-7,57.7,49.3,39.2,55.1,45.7,36.8,92,88,77,29.73,29.49,15,2,15,0.03
2013-11-8,51.3,41.9,35.6,49.0,39.9,33.5,94,93,91,29.73,29.54,12,2,12,0.33
2013-11-9,46.2,40.0,32.2,44.4,38.3,30.5,95,94,93,29.73,29.55,7,1,7,0.33
2013-11-10,49.1,40.7,32.7,43.3,37.5,30.2,94,89,71,30.20,29.56,12,4,12,0.03
2013-11-11,54.1,48.4,33.3,52.7,46.6,30.7,95,93,91,30.19,30.08,17,4,17,0.11
2013-11-12,54.9,49.0,35.2,53.5,47.3,33.7,95,94,91,30.44,30.09,14,3,14,0.06
2013-11-13,52.0,39.7,29.7,49.1,37.4,28.4,95,92,82,30.52,30.14,12,2,12,0.00
2013-11-14,57.0,44.9,38.3,46.6,40.0,35.1,90,83,68,30.36,30.07,22,8,22,0.00
2013-11-15,49.8,39.2,31.5,40.6,34.7,28.9,90,84,67,30.47,30.36,14,4,14,0.00
2013-11-16,49.8,39.3,28.4,44.4,36.4,26.1,93,89,81,30.48,30.30,10,2,10,0.00
2013-11-17,55.4,46.4,44.2,51.0,43.7,41.5,92,90,88,30.31,29.95,7,1,7,0.00
2013-11-18,52.0,46.8,42.1,47.5,44.1,39.6,93,90,82,29.95,29.70,8,2,8,0.06
2013-11-19,44.2,36.5,28.2,39.6,32.9,25.6,94,87,73,30.00,29.75,15,4,15,0.00
2013-11-20,46.9,36.6,26.8,43.3,34.4,24.2,94,92,83,29.98,29.36,18,5,18,0.25
2013-11-21,44.8,39.9,36.1,41.5,37.5,33.5,95,91,84,29.87,29.37,21,9,21,0.06
2013-11-22,45.9,38.5,31.8,39.0,34.9,29.8,93,87,72,30.09,29.77,17,6,17,0.00
2013-11-23,45.5,39.8,33.6,40.1,36.6,31.8,93,88,78,30.25,30.08,12,5,12,0.00
2013-11-24,47.3,42.2,38.3,42.7,38.3,34.5,88,86,79,30.48,30.24,13,5,13,0.00
2013-11-25,45.0,41.3,38.3,39.1,37.1,34.8,90,85,79,30.60,30.48,13,6,13,0.00
2013-11-26,44.4,39.1,30.2,38.9,34.9,27.6,92,85,77,30.65,30.50,9,3,9,0.00
2013-11-27,51.3,46.2,42.1,48.1,43.3,37.6,92,90,84,30.50,30.41,6,2,6,0.00
2013-11-28,49.5,47.0,45.1,46.1,44.3,42.5,92,90,87,30.49,30.44,7,2,7,0.00
2013-11-29,50.2,46.0,42.3,44.6,41.5,37.2,92,85,74,30.44,30.14,16,5,16,0.00
2013-11-30,46.6,41.8,34.9,40.1,36.8,31.7,89,82,77,30.40,30.14,17,6,17,0.00
2013-12-1,63.1,40.7,31.1,49.9,37.6,28.5,92,89,62,30.48,30.16,6,2,6,0.00
2013-12-2,49.1,44.0,39.2,44.4,40.6,36.4,92,88,80,30.49,30.37,6,1,6,0.00
2013-12-3,43.3,41.7,39.9,39.2,37.2,35.4,91,84,79,30.38,30.26,6,2,6,0.00
2013-12-4,47.7,40.0,27.1,44.6,36.0,24.9,91,85,75,30.42,30.24,10,3,10,0.00
2013-12-5,50.2,38.7,25.5,44.5,35.4,23.3,93,88,79,30.40,30.00,28,7,28,0.03
2013-12-6,47.8,39.2,29.8,40.8,35.3,27.5,92,86,74,30.34,30.19,15,3,15,0.00
2013-12-7,49.3,44.0,37.4,45.0,41.5,35.0,93,91,85,30.30,30.21,12,3,12,0.00
2013-12-8,51.3,42.7,32.0,47.2,40.3,30.2,94,91,84,30.25,30.18,13,4,13,0.00
2013-12-9,49.8,39.6,29.3,48.2,37.8,27.5,95,93,90,30.34,30.25,8,2,8,0.00
2013-12-10,48.0,36.2,29.3,45.7,34.2,27.5,94,93,89,30.39,30.33,8,1,8,0.00
2013-12-11,59.4,35.1,28.6,53.2,33.4,27.1,94,93,80,30.37,30.04,4,0,4,0.00
2013-12-12,47.5,40.2,28.9,45.9,38.8,27.4,95,94,94,30.23,30.13,9,2,9,0.00
2013-12-13,53.1,49.0,41.0,48.9,46.3,39.1,95,91,80,30.13,29.96,15,5,15,0.08
2013-12-14,51.6,43.8,32.2,48.4,41.2,30.4,95,91,85,30.23,30.00,25,8,25,0.06
2013-12-15,52.2,48.1,38.1,50.8,46.5,36.5,95,94,92,30.11,30.01,18,7,18,0.06
2013-12-16,67.1,50.3,44.4,50.2,47.0,43.1,95,90,54,30.05,30.01,15,6,15,0.63
2013-12-17,44.4,41.8,39.2,43.1,40.6,37.9,96,95,95,30.19,29.92,9,2,9,0.22
2013-12-18,49.5,43.6,38.1,48.1,42.3,36.8,96,95,92,29.92,29.68,22,7,22,0.00
2013-12-19,46.9,40.7,34.3,43.2,38.3,32.8,95,91,82,29.82,29.49,22,4,22,0.19
2013-12-20,50.2,41.9,32.5,46.1,39.6,31.3,95,91,84,30.23,29.82,31,8,31,0.00
2013-12-21,51.3,49.7,44.8,49.9,48.0,42.9,95,94,87,30.00,29.67,26,13,26,0.69
2013-12-22,49.3,44.5,38.3,45.0,40.8,34.8,93,87,76,29.86,29.69,17,7,17,0.03
2013-12-23,51.3,47.1,38.5,49.9,45.1,35.5,95,93,89,29.86,28.84,38,15,38,1.41
2013-12-24,50.9,45.2,39.9,49.5,43.3,37.8,95,93,87,28.95,28.78,35,10,35,0.69
2013-12-25,42.3,38.2,34.9,40.5,36.5,33.2,95,94,91,29.12,28.90,13,2,13,0.17
2013-12-26,45.5,37.1,30.7,43.5,35.5,29.5,95,94,89,29.46,29.12,30,3,30,0.03
2013-12-27,50.9,46.4,40.1,49.5,42.7,35.5,95,87,79,29.22,28.99,34,12,34,0.22
2013-12-28,45.9,37.0,29.1,40.8,34.1,27.3,94,89,80,29.66,29.22,13,2,13,0.00
2013-12-29,46.4,35.4,27.1,43.3,33.2,25.4,94,92,86,30.01,29.66,20,3,20,0.00
2013-12-30,58.6,45.7,37.2,47.4,43.5,35.4,95,92,66,30.12,29.62,30,10,30,0.56
2013-12-31,50.4,45.4,39.2,48.4,43.6,37.6,95,93,91,29.79,29.50,25,8,25,0.17
2014-1-1,49.8,47.0,42.6,48.4,45.3,40.6,95,94,90,29.53,29.01,32,14,32,1.19
2014-1-2,50.4,46.7,41.2,47.4,44.2,39.6,95,91,81,30.05,29.02,22,9,22,0.22